sensor_id;sensor_type;location;lat;lon;timestamp;pressure;altitude;pressure_sealevel;temperature;humidity
39265;BME280;42646;51.910;7.724;2023-10-19T00:00:58;98995.72;;;10.33;100.00
39265;BME280;42646;51.910;7.724;2023-10-19T00:03:26;98987.75;;;10.33;100.00
39265;BME280;42646;51.910;7.724;2023-10-19T00:05:56;98981.59;;;10.32;100.00
39265;BME280;42646;51.910;7.724;2023-10-19T00:08:24;98977.25;;;10.31;100.00
39265;BME280;42646;51.910;7.724;2023-10-19T00:10:54;98976.28;;;10.32;100.00
39265;BME280;42646;51.910;7.724;2023-10-19T00:13:29;98972.13;;;10.30;100.00
39265;BME280;42646;51.910;7.724;2023-10-19T00:15:58;98981.94;;;10.29;100.00
39265;BME280;42646;51.910;7.724;2023-10-19T00:18:27;98980.28;;;10.28;100.00
39265;BME280;42646;51.910;7.724;2023-10-19T00:20:59;98970.66;;;10.27;100.00
39265;BME280;42646;51.910;7.724;2023-10-19T00:23:26;98966.38;;;10.26;100.00
39265;BME280;42646;51.910;7.724;2023-10-19T00:25:58;98966.38;;;10.26;100.00
39265;BME280;42646;51.910;7.724;2023-10-19T00:28:26;98969.84;;;10.27;100.00
39265;BME280;42646;51.910;7.724;2023-10-19T00:30:54;98964.53;;;10.27;100.00
39265;BME280;42646;51.910;7.724;2023-10-19T00:33:50;98964.69;;;10.25;100.00
39265;BME280;42646;51.910;7.724;2023-10-19T00:36:23;98964.53;;;10.27;100.00
39265;BME280;42646;51.910;7.724;2023-10-19T00:38:53;98961.22;;;10.25;100.00
39265;BME280;42646;51.910;7.724;2023-10-19T00:41:25;98959.38;;;10.25;100.00
39265;BME280;42646;51.910;7.724;2023-10-19T00:43:56;98954.06;;;10.25;100.00
39265;BME280;42646;51.910;7.724;2023-10-19T00:46:29;98953.22;;;10.25;100.00
39265;BME280;42646;51.910;7.724;2023-10-19T00:49:02;98938.44;;;10.22;100.00
39265;BME280;42646;51.910;7.724;2023-10-19T00:51:35;98940.78;;;10.25;100.00
39265;BME280;42646;51.910;7.724;2023-10-19T00:54:18;98940.78;;;10.25;100.00
39265;BME280;42646;51.910;7.724;2023-10-19T00:56:59;98920.34;;;10.26;100.00
39265;BME280;42646;51.910;7.724;2023-10-19T00:59:33;98915.00;;;10.26;100.00
39265;BME280;42646;51.910;7.724;2023-10-19T01:02:09;98906.22;;;10.25;100.00
39265;BME280;42646;51.910;7.724;2023-10-19T01:04:58;98902.75;;;10.25;100.00
39265;BME280;42646;51.910;7.724;2023-10-19T01:07:27;98901.25;;;10.22;100.00
39265;BME280;42646;51.910;7.724;2023-10-19T01:09:59;98898.59;;;10.22;100.00
39265;BME280;42646;51.910;7.724;2023-10-19T01:12:30;98891.44;;;10.23;100.00
39265;BME280;42646;51.910;7.724;2023-10-19T01:15:08;98895.44;;;10.18;100.00
39265;BME280;42646;51.910;7.724;2023-10-19T01:17:40;98897.28;;;10.18;100.00
39265;BME280;42646;51.910;7.724;2023-10-19T01:20:14;98892.16;;;10.16;100.00
39265;BME280;42646;51.910;7.724;2023-10-19T01:22:52;98876.41;;;10.15;100.00
39265;BME280;42646;51.910;7.724;2023-10-19T01:25:50;98884.19;;;10.16;100.00
39265;BME280;42646;51.910;7.724;2023-10-19T01:28:29;98882.53;;;10.15;100.00
39265;BME280;42646;51.910;7.724;2023-10-19T01:31:11;98886.03;;;10.16;100.00
39265;BME280;42646;51.910;7.724;2023-10-19T01:33:43;98889.50;;;10.16;100.00
39265;BME280;42646;51.910;7.724;2023-10-19T01:36:12;98875.00;;;10.19;100.00
39265;BME280;42646;51.910;7.724;2023-10-19T01:38:55;98872.19;;;10.21;100.00
39265;BME280;42646;51.910;7.724;2023-10-19T01:41:25;98871.19;;;10.22;100.00
39265;BME280;42646;51.910;7.724;2023-10-19T01:43:53;98868.38;;;10.23;100.00
39265;BME280;42646;51.910;7.724;2023-10-19T01:46:23;98866.53;;;10.24;100.00
39265;BME280;42646;51.910;7.724;2023-10-19T01:48:54;98868.19;;;10.25;100.00
39265;BME280;42646;51.910;7.724;2023-10-19T01:51:23;98862.72;;;10.26;100.00
39265;BME280;42646;51.910;7.724;2023-10-19T01:53:51;98860.88;;;10.27;100.00
39265;BME280;42646;51.910;7.724;2023-10-19T01:56:23;98867.03;;;10.27;100.00
39265;BME280;42646;51.910;7.724;2023-10-19T01:58:52;98867.84;;;10.28;100.00
39265;BME280;42646;51.910;7.724;2023-10-19T02:01:21;98861.72;;;10.27;100.00
39265;BME280;42646;51.910;7.724;2023-10-19T02:03:57;98863.34;;;10.28;100.00
39265;BME280;42646;51.910;7.724;2023-10-19T02:06:27;98864.81;;;10.31;100.00
39265;BME280;42646;51.910;7.724;2023-10-19T02:09:03;98851.53;;;10.31;100.00
39265;BME280;42646;51.910;7.724;2023-10-19T02:11:37;98854.03;;;10.32;100.00
39265;BME280;42646;51.910;7.724;2023-10-19T02:14:09;98851.38;;;10.32;100.00
39265;BME280;42646;51.910;7.724;2023-10-19T02:16:41;98848.50;;;10.34;100.00
39265;BME280;42646;51.910;7.724;2023-10-19T02:19:10;98854.47;;;10.36;100.00
39265;BME280;42646;51.910;7.724;2023-10-19T02:21:40;98847.31;;;10.36;100.00
39265;BME280;42646;51.910;7.724;2023-10-19T02:24:08;98841.84;;;10.38;100.00
39265;BME280;42646;51.910;7.724;2023-10-19T02:26:37;98825.91;;;10.38;100.00
39265;BME280;42646;51.910;7.724;2023-10-19T02:29:06;98818.75;;;10.38;100.00
39265;BME280;42646;51.910;7.724;2023-10-19T02:31:36;98819.38;;;10.40;100.00
39265;BME280;42646;51.910;7.724;2023-10-19T02:34:04;98814.06;;;10.40;100.00
39265;BME280;42646;51.910;7.724;2023-10-19T02:36:36;98813.88;;;10.42;100.00
39265;BME280;42646;51.910;7.724;2023-10-19T02:39:05;98811.22;;;10.42;100.00
39265;BME280;42646;51.910;7.724;2023-10-19T02:41:38;98813.72;;;10.43;100.00
39265;BME280;42646;51.910;7.724;2023-10-19T02:44:09;98803.69;;;10.46;100.00
39265;BME280;42646;51.910;7.724;2023-10-19T02:46:41;98804.53;;;10.46;100.00
39265;BME280;42646;51.910;7.724;2023-10-19T02:49:11;98792.88;;;10.47;100.00
39265;BME280;42646;51.910;7.724;2023-10-19T02:51:41;98795.34;;;10.49;100.00
39265;BME280;42646;51.910;7.724;2023-10-19T02:54:12;98801.47;;;10.49;100.00
39265;BME280;42646;51.910;7.724;2023-10-19T02:56:48;98805.00;;;10.50;100.00
39265;BME280;42646;51.910;7.724;2023-10-19T02:59:19;98799.69;;;10.50;100.00
39265;BME280;42646;51.910;7.724;2023-10-19T03:01:49;98787.22;;;10.50;100.00
39265;BME280;42646;51.910;7.724;2023-10-19T03:04:18;98794.38;;;10.50;100.00
39265;BME280;42646;51.910;7.724;2023-10-19T03:06:45;98804.81;;;10.51;100.00
39265;BME280;42646;51.910;7.724;2023-10-19T03:09:15;98797.84;;;10.50;100.00
39265;BME280;42646;51.910;7.724;2023-10-19T03:11:50;98803.59;;;10.54;100.00
39265;BME280;42646;51.910;7.724;2023-10-19T03:14:20;98798.09;;;10.55;100.00
39265;BME280;42646;51.910;7.724;2023-10-19T03:16:47;98798.94;;;10.56;100.00
39265;BME280;42646;51.910;7.724;2023-10-19T03:19:16;98795.09;;;10.58;100.00
39265;BME280;42646;51.910;7.724;2023-10-19T03:21:43;98789.75;;;10.58;100.00
39265;BME280;42646;51.910;7.724;2023-10-19T03:24:15;98781.59;;;10.60;100.00
39265;BME280;42646;51.910;7.724;2023-10-19T03:26:51;98782.41;;;10.60;100.00
39265;BME280;42646;51.910;7.724;2023-10-19T03:29:21;98786.75;;;10.61;100.00
39265;BME280;42646;51.910;7.724;2023-10-19T03:31:57;98781.25;;;10.63;100.00
39265;BME280;42646;51.910;7.724;2023-10-19T03:34:27;98782.88;;;10.64;100.00
39265;BME280;42646;51.910;7.724;2023-10-19T03:37:01;98785.16;;;10.67;100.00
39265;BME280;42646;51.910;7.724;2023-10-19T03:39:33;98776.19;;;10.68;100.00
39265;BME280;42646;51.910;7.724;2023-10-19T03:42:07;98777.84;;;10.69;100.00
39265;BME280;42646;51.910;7.724;2023-10-19T03:44:36;98773.16;;;10.71;100.00
39265;BME280;42646;51.910;7.724;2023-10-19T03:47:13;98772.31;;;10.70;100.00
39265;BME280;42646;51.910;7.724;2023-10-19T03:49:46;98769.31;;;10.74;100.00
39265;BME280;42646;51.910;7.724;2023-10-19T03:52:17;98759.31;;;10.76;100.00
39265;BME280;42646;51.910;7.724;2023-10-19T03:55:12;98761.97;;;10.76;100.00
39265;BME280;42646;51.910;7.724;2023-10-19T03:57:45;98759.78;;;10.79;100.00
39265;BME280;42646;51.910;7.724;2023-10-19T04:00:18;98760.59;;;10.80;100.00
39265;BME280;42646;51.910;7.724;2023-10-19T04:02:48;98762.88;;;10.83;100.00
39265;BME280;42646;51.910;7.724;2023-10-19T04:05:19;98753.88;;;10.84;100.00
39265;BME280;42646;51.910;7.724;2023-10-19T04:07:51;98757.34;;;10.84;100.00
39265;BME280;42646;51.910;7.724;2023-10-19T04:10:21;98758.81;;;10.87;100.00
39265;BME280;42646;51.910;7.724;2023-10-19T04:13:08;98751.66;;;10.87;100.00
39265;BME280;42646;51.910;7.724;2023-10-19T04:15:40;98750.66;;;10.88;100.00
39265;BME280;42646;51.910;7.724;2023-10-19T04:18:09;98746.78;;;10.91;100.00
39265;BME280;42646;51.910;7.724;2023-10-19T04:20:38;98743.75;;;10.94;100.00
39265;BME280;42646;51.910;7.724;2023-10-19T04:23:25;98740.09;;;10.95;100.00
39265;BME280;42646;51.910;7.724;2023-10-19T04:25:54;98733.94;;;10.94;100.00
39265;BME280;42646;51.910;7.724;2023-10-19T04:28:27;98729.44;;;10.95;100.00
39265;BME280;42646;51.910;7.724;2023-10-19T04:31:00;98731.75;;;10.98;100.00
39265;BME280;42646;51.910;7.724;2023-10-19T04:33:30;98730.53;;;11.01;100.00
39265;BME280;42646;51.910;7.724;2023-10-19T04:36:00;98732.00;;;11.03;100.00
39265;BME280;42646;51.910;7.724;2023-10-19T04:38:28;98729.97;;;11.05;100.00
39265;BME280;42646;51.910;7.724;2023-10-19T04:41:09;98726.91;;;11.08;100.00
39265;BME280;42646;51.910;7.724;2023-10-19T04:43:39;98734.72;;;11.10;100.00
39265;BME280;42646;51.910;7.724;2023-10-19T04:46:11;98718.75;;;11.10;100.00
39265;BME280;42646;51.910;7.724;2023-10-19T04:48:40;98724.09;;;11.10;100.00
39265;BME280;42646;51.910;7.724;2023-10-19T04:51:08;98717.53;;;11.12;100.00
39265;BME280;42646;51.910;7.724;2023-10-19T04:53:37;98720.00;;;11.14;100.00
39265;BME280;42646;51.910;7.724;2023-10-19T04:56:06;98721.69;;;11.15;100.00
39265;BME280;42646;51.910;7.724;2023-10-19T04:58:36;98721.28;;;11.18;100.00
39265;BME280;42646;51.910;7.724;2023-10-19T05:01:05;98722.94;;;11.19;100.00
39265;BME280;42646;51.910;7.724;2023-10-19T05:03:38;98717.41;;;11.20;100.00
39265;BME280;42646;51.910;7.724;2023-10-19T05:06:05;98717.25;;;11.22;100.00
39265;BME280;42646;51.910;7.724;2023-10-19T05:08:36;98718.06;;;11.22;100.00
39265;BME280;42646;51.910;7.724;2023-10-19T05:11:04;98716.84;;;11.25;100.00
39265;BME280;42646;51.910;7.724;2023-10-19T05:13:31;98714.84;;;11.27;100.00
39265;BME280;42646;51.910;7.724;2023-10-19T05:16:00;98720.78;;;11.29;100.00
39265;BME280;42646;51.910;7.724;2023-10-19T05:18:29;98719.78;;;11.30;100.00
39265;BME280;42646;51.910;7.724;2023-10-19T05:20:56;98716.09;;;11.31;100.00
39265;BME280;42646;51.910;7.724;2023-10-19T05:23:26;98713.25;;;11.33;100.00
39265;BME280;42646;51.910;7.724;2023-10-19T05:26:00;98707.53;;;11.36;100.00
39265;BME280;42646;51.910;7.724;2023-10-19T05:28:31;98712.66;;;11.37;100.00
39265;BME280;42646;51.910;7.724;2023-10-19T05:30:58;98714.31;;;11.38;100.00
39265;BME280;42646;51.910;7.724;2023-10-19T05:33:28;98718.63;;;11.39;100.00
39265;BME280;42646;51.910;7.724;2023-10-19T05:35:57;98722.94;;;11.40;100.00
39265;BME280;42646;51.910;7.724;2023-10-19T05:38:25;98722.53;;;11.43;100.00
39265;BME280;42646;51.910;7.724;2023-10-19T05:40:53;98726.03;;;11.44;100.00
39265;BME280;42646;51.910;7.724;2023-10-19T05:43:22;98727.50;;;11.46;100.00
39265;BME280;42646;51.910;7.724;2023-10-19T05:46:14;98727.09;;;11.49;100.00
39265;BME280;42646;51.910;7.724;2023-10-19T05:48:46;98731.81;;;11.47;100.00
39265;BME280;42646;51.910;7.724;2023-10-19T05:51:15;98736.78;;;11.50;100.00
39265;BME280;42646;51.910;7.724;2023-10-19T05:53:47;98733.25;;;11.50;100.00
39265;BME280;42646;51.910;7.724;2023-10-19T05:56:15;98734.72;;;11.53;100.00
39265;BME280;42646;51.910;7.724;2023-10-19T05:58:43;98733.72;;;11.54;100.00
39265;BME280;42646;51.910;7.724;2023-10-19T06:01:15;98734.31;;;11.56;100.00
39265;BME280;42646;51.910;7.724;2023-10-19T06:03:44;98734.16;;;11.57;100.00
39265;BME280;42646;51.910;7.724;2023-10-19T06:06:13;98743.78;;;11.58;100.00
39265;BME280;42646;51.910;7.724;2023-10-19T06:08:41;98744.41;;;11.60;100.00
39265;BME280;42646;51.910;7.724;2023-10-19T06:11:10;98739.09;;;11.60;100.00
39265;BME280;42646;51.910;7.724;2023-10-19T06:13:38;98746.88;;;11.62;100.00
39265;BME280;42646;51.910;7.724;2023-10-19T06:16:06;98755.53;;;11.64;100.00
39265;BME280;42646;51.910;7.724;2023-10-19T06:18:34;98751.00;;;11.64;100.00
39265;BME280;42646;51.910;7.724;2023-10-19T06:21:04;98743.66;;;11.66;100.00
39265;BME280;42646;51.910;7.724;2023-10-19T06:23:33;98747.94;;;11.67;100.00
39265;BME280;42646;51.910;7.724;2023-10-19T06:26:08;98751.88;;;11.71;100.00
39265;BME280;42646;51.910;7.724;2023-10-19T06:28:37;98751.69;;;11.73;100.00
39265;BME280;42646;51.910;7.724;2023-10-19T06:31:07;98757.66;;;11.75;100.00
39265;BME280;42646;51.910;7.724;2023-10-19T06:33:36;98758.28;;;11.77;100.00
39265;BME280;42646;51.910;7.724;2023-10-19T06:36:08;98756.06;;;11.81;100.00
39265;BME280;42646;51.910;7.724;2023-10-19T06:38:38;98755.69;;;11.84;100.00
39265;BME280;42646;51.910;7.724;2023-10-19T06:41:12;98752.66;;;11.87;100.00
39265;BME280;42646;51.910;7.724;2023-10-19T06:43:41;98756.78;;;11.89;100.00
39265;BME280;42646;51.910;7.724;2023-10-19T06:46:09;98759.06;;;11.92;100.00
39265;BME280;42646;51.910;7.724;2023-10-19T06:48:39;98759.69;;;11.94;100.00
39265;BME280;42646;51.910;7.724;2023-10-19T06:51:07;98761.94;;;11.97;100.00
39265;BME280;42646;51.910;7.724;2023-10-19T06:53:35;98752.56;;;12.01;100.00
39265;BME280;42646;51.910;7.724;2023-10-19T06:56:05;98754.84;;;12.05;100.00
39265;BME280;42646;51.910;7.724;2023-10-19T06:58:33;98757.75;;;12.10;100.00
39265;BME280;42646;51.910;7.724;2023-10-19T07:01:07;98763.13;;;12.16;100.00
39265;BME280;42646;51.910;7.724;2023-10-19T07:03:37;98773.00;;;12.22;100.00
39265;BME280;42646;51.910;7.724;2023-10-19T07:06:05;98772.41;;;12.27;100.00
39265;BME280;42646;51.910;7.724;2023-10-19T07:08:39;98776.97;;;12.33;100.00
39265;BME280;42646;51.910;7.724;2023-10-19T07:11:09;98774.94;;;12.35;100.00
39265;BME280;42646;51.910;7.724;2023-10-19T07:13:41;98775.19;;;12.40;100.00
39265;BME280;42646;51.910;7.724;2023-10-19T07:16:11;98773.75;;;12.44;100.00
39265;BME280;42646;51.910;7.724;2023-10-19T07:18:39;98780.13;;;12.50;100.00
39265;BME280;42646;51.910;7.724;2023-10-19T07:21:07;98782.44;;;12.53;100.00
39265;BME280;42646;51.910;7.724;2023-10-19T07:23:36;98782.84;;;12.56;100.00
39265;BME280;42646;51.910;7.724;2023-10-19T07:26:04;98787.59;;;12.61;100.00
39265;BME280;42646;51.910;7.724;2023-10-19T07:28:36;98785.38;;;12.65;100.00
39265;BME280;42646;51.910;7.724;2023-10-19T07:31:06;98789.47;;;12.67;100.00
39265;BME280;42646;51.910;7.724;2023-10-19T07:33:39;98782.94;;;12.70;100.00
39265;BME280;42646;51.910;7.724;2023-10-19T07:36:12;98786.81;;;12.74;100.00
39265;BME280;42646;51.910;7.724;2023-10-19T07:38:40;98792.59;;;12.77;100.00
39265;BME280;42646;51.910;7.724;2023-10-19T07:41:09;98787.72;;;12.81;100.00
39265;BME280;42646;51.910;7.724;2023-10-19T07:43:39;98799.00;;;12.83;100.00
39265;BME280;42646;51.910;7.724;2023-10-19T07:46:06;98802.06;;;12.87;100.00
39265;BME280;42646;51.910;7.724;2023-10-19T07:48:58;98795.13;;;12.92;100.00
39265;BME280;42646;51.910;7.724;2023-10-19T07:51:27;98796.38;;;12.96;100.00
39265;BME280;42646;51.910;7.724;2023-10-19T07:54:21;98797.63;;;13.00;100.00
39265;BME280;42646;51.910;7.724;2023-10-19T07:57:19;98796.41;;;13.03;100.00
39265;BME280;42646;51.910;7.724;2023-10-19T07:59:50;98797.66;;;13.07;100.00
39265;BME280;42646;51.910;7.724;2023-10-19T08:02:19;98793.56;;;13.11;100.00
39265;BME280;42646;51.910;7.724;2023-10-19T08:04:47;98793.59;;;13.18;100.00
39265;BME280;42646;51.910;7.724;2023-10-19T08:07:14;98786.84;;;13.22;100.00
39265;BME280;42646;51.910;7.724;2023-10-19T08:09:43;98799.38;;;13.28;100.00
39265;BME280;42646;51.910;7.724;2023-10-19T08:12:12;98791.59;;;13.33;100.00
39265;BME280;42646;51.910;7.724;2023-10-19T08:14:40;98796.34;;;13.38;100.00
39265;BME280;42646;51.910;7.724;2023-10-19T08:17:09;98798.41;;;13.42;100.00
39265;BME280;42646;51.910;7.724;2023-10-19T08:19:36;98801.91;;;13.49;100.00
39265;BME280;42646;51.910;7.724;2023-10-19T08:22:04;98798.44;;;13.55;100.00
39265;BME280;42646;51.910;7.724;2023-10-19T08:24:33;98801.31;;;13.60;100.00
39265;BME280;42646;51.910;7.724;2023-10-19T08:27:02;98805.84;;;13.67;100.00
39265;BME280;42646;51.910;7.724;2023-10-19T08:29:31;98799.91;;;13.71;100.00
39265;BME280;42646;51.910;7.724;2023-10-19T08:32:01;98805.25;;;13.78;100.00
39265;BME280;42646;51.910;7.724;2023-10-19T08:34:33;98799.09;;;13.84;100.00
39265;BME280;42646;51.910;7.724;2023-10-19T08:37:02;98800.94;;;13.90;100.00
39265;BME280;42646;51.910;7.724;2023-10-19T08:39:31;98793.13;;;13.95;100.00
39265;BME280;42646;51.910;7.724;2023-10-19T08:42:02;98780.97;;;13.99;100.00
39265;BME280;42646;51.910;7.724;2023-10-19T08:44:30;98791.69;;;14.06;100.00
39265;BME280;42646;51.910;7.724;2023-10-19T08:46:59;98790.88;;;14.12;100.00
39265;BME280;42646;51.910;7.724;2023-10-19T08:49:28;98789.81;;;14.20;100.00
39265;BME280;42646;51.910;7.724;2023-10-19T08:51:59;98789.00;;;14.26;100.00
39265;BME280;42646;51.910;7.724;2023-10-19T08:54:30;98781.97;;;14.31;100.00
39265;BME280;42646;51.910;7.724;2023-10-19T08:57:00;98783.00;;;14.37;100.00
39265;BME280;42646;51.910;7.724;2023-10-19T08:59:28;98788.56;;;14.42;100.00
39265;BME280;42646;51.910;7.724;2023-10-19T09:02:00;98788.78;;;14.47;100.00
39265;BME280;42646;51.910;7.724;2023-10-19T09:04:29;98788.13;;;14.52;100.00
39265;BME280;42646;51.910;7.724;2023-10-19T09:06:59;98787.28;;;14.58;100.00
39265;BME280;42646;51.910;7.724;2023-10-19T09:09:33;98781.91;;;14.64;100.00
39265;BME280;42646;51.910;7.724;2023-10-19T09:12:00;98778.63;;;14.69;100.00
39265;BME280;42646;51.910;7.724;2023-10-19T09:14:32;98774.28;;;14.75;100.00
39265;BME280;42646;51.910;7.724;2023-10-19T09:17:02;98775.50;;;14.79;100.00
39265;BME280;42646;51.910;7.724;2023-10-19T09:19:38;98773.84;;;14.84;100.00
39265;BME280;42646;51.910;7.724;2023-10-19T09:22:09;98774.84;;;14.90;100.00
39265;BME280;42646;51.910;7.724;2023-10-19T09:24:49;98774.22;;;14.94;100.00
39265;BME280;42646;51.910;7.724;2023-10-19T09:27:17;98774.38;;;15.00;100.00
39265;BME280;42646;51.910;7.724;2023-10-19T09:29:49;98773.53;;;15.06;100.00
39265;BME280;42646;51.910;7.724;2023-10-19T09:32:17;98775.34;;;15.12;100.00
39265;BME280;42646;51.910;7.724;2023-10-19T09:34:47;98773.69;;;15.17;100.00
39265;BME280;42646;51.910;7.724;2023-10-19T09:37:17;98765.63;;;15.24;100.00
39265;BME280;42646;51.910;7.724;2023-10-19T09:39:45;98765.78;;;15.29;100.00
39265;BME280;42646;51.910;7.724;2023-10-19T09:42:14;98762.25;;;15.35;100.00
39265;BME280;42646;51.910;7.724;2023-10-19T09:44:45;98765.09;;;15.40;100.00
39265;BME280;42646;51.910;7.724;2023-10-19T09:47:22;98763.41;;;15.46;100.00
39265;BME280;42646;51.910;7.724;2023-10-19T09:49:56;98753.91;;;15.50;100.00
39265;BME280;42646;51.910;7.724;2023-10-19T09:52:25;98748.72;;;15.55;100.00
39265;BME280;42646;51.910;7.724;2023-10-19T09:54:59;98748.28;;;15.58;100.00
39265;BME280;42646;51.910;7.724;2023-10-19T09:57:34;98751.97;;;15.64;100.00
39265;BME280;42646;51.910;7.724;2023-10-19T10:00:05;98750.53;;;15.68;100.00
39265;BME280;42646;51.910;7.724;2023-10-19T10:02:42;98766.78;;;15.73;100.00
39265;BME280;42646;51.910;7.724;2023-10-19T10:05:46;98763.44;;;15.78;100.00
39265;BME280;42646;51.910;7.724;2023-10-19T10:08:31;98766.28;;;15.83;100.00
39265;BME280;42646;51.910;7.724;2023-10-19T10:11:24;98758.03;;;15.84;100.00
39265;BME280;42646;51.910;7.724;2023-10-19T10:13:54;98753.03;;;15.88;100.00
39265;BME280;42646;51.910;7.724;2023-10-19T10:16:25;98748.06;;;15.91;100.00
39265;BME280;42646;51.910;7.724;2023-10-19T10:19:20;98743.69;;;15.97;100.00
39265;BME280;42646;51.910;7.724;2023-10-19T10:22:03;98748.41;;;16.01;100.00
39265;BME280;42646;51.910;7.724;2023-10-19T10:24:34;98750.38;;;16.06;100.00
39265;BME280;42646;51.910;7.724;2023-10-19T10:27:02;98753.22;;;16.11;100.00
39265;BME280;42646;51.910;7.724;2023-10-19T10:29:30;98756.91;;;16.17;100.00
39265;BME280;42646;51.910;7.724;2023-10-19T10:32:42;98748.34;;;16.26;100.00
39265;BME280;42646;51.910;7.724;2023-10-19T10:38:18;98743.06;;;16.38;100.00
39265;BME280;42646;51.910;7.724;2023-10-19T10:40:50;98740.31;;;16.45;100.00
39265;BME280;42646;51.910;7.724;2023-10-19T10:43:19;98741.53;;;16.49;100.00
39265;BME280;42646;51.910;7.724;2023-10-19T10:45:48;98744.56;;;16.52;100.00
39265;BME280;42646;51.910;7.724;2023-10-19T10:48:18;98740.16;;;16.58;100.00
39265;BME280;42646;51.910;7.724;2023-10-19T10:50:46;98735.19;;;16.62;100.00
39265;BME280;42646;51.910;7.724;2023-10-19T10:53:14;98731.81;;;16.66;100.00
39265;BME280;42646;51.910;7.724;2023-10-19T10:55:42;98736.53;;;16.71;100.00
39265;BME280;42646;51.910;7.724;2023-10-19T10:58:14;98726.59;;;16.71;100.00
39265;BME280;42646;51.910;7.724;2023-10-19T11:00:43;98729.66;;;16.75;100.00
39265;BME280;42646;51.910;7.724;2023-10-19T11:03:11;98730.06;;;16.78;100.00
39265;BME280;42646;51.910;7.724;2023-10-19T11:05:40;98732.03;;;16.83;100.00
39265;BME280;42646;51.910;7.724;2023-10-19T11:08:11;98733.47;;;16.86;100.00
39265;BME280;42646;51.910;7.724;2023-10-19T11:10:42;98734.28;;;16.86;100.00
39265;BME280;42646;51.910;7.724;2023-10-19T11:13:13;98734.88;;;16.88;100.00
39265;BME280;42646;51.910;7.724;2023-10-19T11:16:08;98744.38;;;16.91;100.00
39265;BME280;42646;51.910;7.724;2023-10-19T11:18:37;98735.25;;;16.92;100.00
39265;BME280;42646;51.910;7.724;2023-10-19T11:21:08;98745.31;;;16.96;100.00
39265;BME280;42646;51.910;7.724;2023-10-19T11:23:40;98741.34;;;16.99;100.00
39265;BME280;42646;51.910;7.724;2023-10-19T11:26:09;98741.50;;;17.04;100.00
39265;BME280;42646;51.910;7.724;2023-10-19T11:28:39;98737.31;;;17.08;100.00
39265;BME280;42646;51.910;7.724;2023-10-19T11:31:15;98734.75;;;17.13;100.00
39265;BME280;42646;51.910;7.724;2023-10-19T11:33:44;98726.63;;;17.20;100.00
39265;BME280;42646;51.910;7.724;2023-10-19T11:36:12;98732.00;;;17.20;100.00
39265;BME280;42646;51.910;7.724;2023-10-19T11:38:41;98733.16;;;17.24;100.00
39265;BME280;42646;51.910;7.724;2023-10-19T11:41:09;98724.84;;;17.25;100.00
39265;BME280;42646;51.910;7.724;2023-10-19T11:43:39;98716.78;;;17.25;100.00
39265;BME280;42646;51.910;7.724;2023-10-19T11:54:38;98708.53;;;17.27;100.00
39265;BME280;42646;51.910;7.724;2023-10-19T11:57:06;98706.88;;;17.26;100.00
39265;BME280;42646;51.910;7.724;2023-10-19T11:59:35;98714.72;;;17.27;100.00
39265;BME280;42646;51.910;7.724;2023-10-19T12:02:04;98706.41;;;17.29;100.00
39265;BME280;42646;51.910;7.724;2023-10-19T12:04:33;98712.38;;;17.31;100.00
39265;BME280;42646;51.910;7.724;2023-10-19T12:07:03;98714.84;;;17.32;100.00
39265;BME280;42646;51.910;7.724;2023-10-19T12:09:32;98699.78;;;17.31;100.00
39265;BME280;42646;51.910;7.724;2023-10-19T12:11:59;98695.22;;;17.32;100.00
39265;BME280;42646;51.910;7.724;2023-10-19T12:14:27;98695.22;;;17.32;100.00
39265;BME280;42646;51.910;7.724;2023-10-19T12:16:57;98679.28;;;17.30;100.00
39265;BME280;42646;51.910;7.724;2023-10-19T12:19:27;98681.97;;;17.30;100.00
39265;BME280;42646;51.910;7.724;2023-10-19T12:21:56;98678.72;;;17.28;100.00
39265;BME280;42646;51.910;7.724;2023-10-19T12:24:25;98680.34;;;17.29;100.00
39265;BME280;42646;51.910;7.724;2023-10-19T12:26:55;98676.59;;;17.30;100.00
39265;BME280;42646;51.910;7.724;2023-10-19T12:29:23;98674.53;;;17.32;100.00
39265;BME280;42646;51.910;7.724;2023-10-19T12:31:53;98671.38;;;17.35;100.00
39265;BME280;42646;51.910;7.724;2023-10-19T12:34:22;98666.59;;;17.38;100.00
39265;BME280;42646;51.910;7.724;2023-10-19T12:36:50;98668.56;;;17.42;100.00
39265;BME280;42646;51.910;7.724;2023-10-19T12:39:19;98667.88;;;17.47;100.00
39265;BME280;42646;51.910;7.724;2023-10-19T12:42:00;98677.13;;;17.51;100.00
39265;BME280;42646;51.910;7.724;2023-10-19T12:44:29;98675.03;;;17.53;100.00
39265;BME280;42646;51.910;7.724;2023-10-19T12:47:05;98675.38;;;17.56;100.00
39265;BME280;42646;51.910;7.724;2023-10-19T12:49:37;98667.66;;;17.60;100.00
39265;BME280;42646;51.910;7.724;2023-10-19T12:52:06;98669.09;;;17.62;100.00
39265;BME280;42646;51.910;7.724;2023-10-19T12:54:34;98660.53;;;17.66;100.00
39265;BME280;42646;51.910;7.724;2023-10-19T12:57:04;98656.56;;;17.68;100.00
39265;BME280;42646;51.910;7.724;2023-10-19T12:59:34;98651.78;;;17.70;100.00
39265;BME280;42646;51.910;7.724;2023-10-19T13:02:05;98640.81;;;17.72;100.00
39265;BME280;42646;51.910;7.724;2023-10-19T13:04:37;98647.59;;;17.74;100.00
39265;BME280;42646;51.910;7.724;2023-10-19T13:07:07;98649.00;;;17.77;100.00
39265;BME280;42646;51.910;7.724;2023-10-19T13:09:39;98655.56;;;17.81;100.00
39265;BME280;42646;51.910;7.724;2023-10-19T13:12:08;98643.63;;;17.77;100.00
39265;BME280;42646;51.910;7.724;2023-10-19T13:14:39;98644.66;;;17.76;100.00
39265;BME280;42646;51.910;7.724;2023-10-19T13:17:07;98641.97;;;17.76;100.00
39265;BME280;42646;51.910;7.724;2023-10-19T13:19:37;98641.41;;;17.74;100.00
39265;BME280;42646;51.910;7.724;2023-10-19T13:22:05;98645.13;;;17.73;100.00
39265;BME280;42646;51.910;7.724;2023-10-19T13:24:34;98660.44;;;17.72;100.00